sensor_id;sensor_type;location;lat;lon;timestamp;temperature;humidity
70271;SHT31;57680;54.292;18.598;2023-08-07T00:01:19;15.26;95.47
70271;SHT31;57680;54.292;18.598;2023-08-07T00:03:44;15.23;95.52
70271;SHT31;57680;54.292;18.598;2023-08-07T00:06:10;15.22;95.53
70271;SHT31;57680;54.292;18.598;2023-08-07T00:08:35;15.20;95.10
70271;SHT31;57680;54.292;18.598;2023-08-07T00:11:05;15.22;94.96
70271;SHT31;57680;54.292;18.598;2023-08-07T00:13:31;15.20;94.97
70271;SHT31;57680;54.292;18.598;2023-08-07T00:15:56;15.24;95.01
70271;SHT31;57680;54.292;18.598;2023-08-07T00:18:22;15.20;94.84
70271;SHT31;57680;54.292;18.598;2023-08-07T00:20:47;15.19;95.01
70271;SHT31;57680;54.292;18.598;2023-08-07T00:23:12;15.18;95.11
70271;SHT31;57680;54.292;18.598;2023-08-07T00:25:38;15.18;94.85
70271;SHT31;57680;54.292;18.598;2023-08-07T00:28:03;15.14;94.77
70271;SHT31;57680;54.292;18.598;2023-08-07T00:30:29;15.14;94.57
70271;SHT31;57680;54.292;18.598;2023-08-07T00:32:54;15.09;94.45
70271;SHT31;57680;54.292;18.598;2023-08-07T00:35:19;15.05;94.59
70271;SHT31;57680;54.292;18.598;2023-08-07T00:37:45;15.00;94.70
70271;SHT31;57680;54.292;18.598;2023-08-07T00:40:10;14.96;94.53
70271;SHT31;57680;54.292;18.598;2023-08-07T00:42:36;14.95;94.58
70271;SHT31;57680;54.292;18.598;2023-08-07T00:45:01;14.92;94.47
70271;SHT31;57680;54.292;18.598;2023-08-07T00:47:26;14.92;94.67
70271;SHT31;57680;54.292;18.598;2023-08-07T00:49:52;14.88;94.70
70271;SHT31;57680;54.292;18.598;2023-08-07T00:52:17;14.85;94.66
70271;SHT31;57680;54.292;18.598;2023-08-07T00:54:43;14.79;94.55
70271;SHT31;57680;54.292;18.598;2023-08-07T00:57:12;14.76;94.72
70271;SHT31;57680;54.292;18.598;2023-08-07T00:59:41;14.71;94.86
70271;SHT31;57680;54.292;18.598;2023-08-07T01:02:07;14.67;94.99
70271;SHT31;57680;54.292;18.598;2023-08-07T01:04:33;14.68;94.83
70271;SHT31;57680;54.292;18.598;2023-08-07T01:06:58;14.67;95.15
70271;SHT31;57680;54.292;18.598;2023-08-07T01:09:24;14.67;95.18
70271;SHT31;57680;54.292;18.598;2023-08-07T01:12:13;14.64;95.28
70271;SHT31;57680;54.292;18.598;2023-08-07T01:14:50;14.62;95.40
70271;SHT31;57680;54.292;18.598;2023-08-07T01:17:19;14.64;95.42
70271;SHT31;57680;54.292;18.598;2023-08-07T01:19:45;14.64;95.62
70271;SHT31;57680;54.292;18.598;2023-08-07T01:22:14;14.67;95.53
70271;SHT31;57680;54.292;18.598;2023-08-07T01:24:40;14.64;95.46
70271;SHT31;57680;54.292;18.598;2023-08-07T01:29:47;14.64;95.67
70271;SHT31;57680;54.292;18.598;2023-08-07T01:32:19;14.67;95.75
70271;SHT31;57680;54.292;18.598;2023-08-07T01:34:47;14.64;95.59
70271;SHT31;57680;54.292;18.598;2023-08-07T01:37:13;14.68;95.32
70271;SHT31;57680;54.292;18.598;2023-08-07T01:39:40;14.71;95.20
70271;SHT31;57680;54.292;18.598;2023-08-07T01:42:06;14.72;95.21
70271;SHT31;57680;54.292;18.598;2023-08-07T01:44:31;14.71;95.10
70271;SHT31;57680;54.292;18.598;2023-08-07T01:46:57;14.71;95.04
70271;SHT31;57680;54.292;18.598;2023-08-07T01:49:22;14.72;95.24
70271;SHT31;57680;54.292;18.598;2023-08-07T01:51:48;14.69;95.35
70271;SHT31;57680;54.292;18.598;2023-08-07T01:54:13;14.69;94.95
70271;SHT31;57680;54.292;18.598;2023-08-07T01:56:38;14.72;95.14
70271;SHT31;57680;54.292;18.598;2023-08-07T01:59:03;14.71;95.15
70271;SHT31;57680;54.292;18.598;2023-08-07T02:01:29;14.69;95.31
70271;SHT31;57680;54.292;18.598;2023-08-07T02:03:54;14.67;95.50
70271;SHT31;57680;54.292;18.598;2023-08-07T02:06:20;14.68;95.82
70271;SHT31;57680;54.292;18.598;2023-08-07T02:08:45;14.62;95.99
70271;SHT31;57680;54.292;18.598;2023-08-07T02:11:10;14.60;96.27
70271;SHT31;57680;54.292;18.598;2023-08-07T02:13:36;14.55;96.57
70271;SHT31;57680;54.292;18.598;2023-08-07T02:16:01;14.55;96.93
70271;SHT31;57680;54.292;18.598;2023-08-07T02:18:27;14.54;97.24
70271;SHT31;57680;54.292;18.598;2023-08-07T02:20:52;14.51;97.39
70271;SHT31;57680;54.292;18.598;2023-08-07T02:23:17;14.49;97.56
70271;SHT31;57680;54.292;18.598;2023-08-07T02:25:43;14.46;97.64
70271;SHT31;57680;54.292;18.598;2023-08-07T02:28:08;14.48;97.72
70271;SHT31;57680;54.292;18.598;2023-08-07T02:30:33;14.46;98.00
70271;SHT31;57680;54.292;18.598;2023-08-07T02:32:59;14.46;97.93
70271;SHT31;57680;54.292;18.598;2023-08-07T02:35:24;14.49;98.00
70271;SHT31;57680;54.292;18.598;2023-08-07T02:37:49;14.49;98.05
70271;SHT31;57680;54.292;18.598;2023-08-07T02:40:15;14.48;97.99
70271;SHT31;57680;54.292;18.598;2023-08-07T02:42:41;14.51;97.88
70271;SHT31;57680;54.292;18.598;2023-08-07T02:45:06;14.55;97.92
70271;SHT31;57680;54.292;18.598;2023-08-07T02:47:32;14.54;97.78
70271;SHT31;57680;54.292;18.598;2023-08-07T02:49:57;14.52;97.69
70271;SHT31;57680;54.292;18.598;2023-08-07T02:52:23;14.58;97.69
70271;SHT31;57680;54.292;18.598;2023-08-07T02:54:48;14.60;97.63
70271;SHT31;57680;54.292;18.598;2023-08-07T02:57:13;14.61;97.48
70271;SHT31;57680;54.292;18.598;2023-08-07T02:59:39;14.58;97.42
70271;SHT31;57680;54.292;18.598;2023-08-07T03:02:05;14.61;97.17
70271;SHT31;57680;54.292;18.598;2023-08-07T03:04:30;14.64;97.15
70271;SHT31;57680;54.292;18.598;2023-08-07T03:06:55;14.62;96.96
70271;SHT31;57680;54.292;18.598;2023-08-07T03:09:21;14.62;96.84
70271;SHT31;57680;54.292;18.598;2023-08-07T03:11:46;14.64;96.82
70271;SHT31;57680;54.292;18.598;2023-08-07T03:14:11;14.64;96.76
70271;SHT31;57680;54.292;18.598;2023-08-07T03:16:37;14.68;96.86
70271;SHT31;57680;54.292;18.598;2023-08-07T03:19:02;14.68;96.57
70271;SHT31;57680;54.292;18.598;2023-08-07T03:21:27;14.68;96.55
70271;SHT31;57680;54.292;18.598;2023-08-07T03:23:53;14.68;96.55
70271;SHT31;57680;54.292;18.598;2023-08-07T03:26:18;14.65;96.35
70271;SHT31;57680;54.292;18.598;2023-08-07T03:28:44;14.64;96.45
70271;SHT31;57680;54.292;18.598;2023-08-07T03:31:09;14.64;96.43
70271;SHT31;57680;54.292;18.598;2023-08-07T03:33:35;14.62;96.49
70271;SHT31;57680;54.292;18.598;2023-08-07T03:36:00;14.60;96.43
70271;SHT31;57680;54.292;18.598;2023-08-07T03:38:25;14.58;96.25
70271;SHT31;57680;54.292;18.598;2023-08-07T03:40:51;14.55;96.09
70271;SHT31;57680;54.292;18.598;2023-08-07T03:43:16;14.61;96.04
70271;SHT31;57680;54.292;18.598;2023-08-07T03:45:42;14.60;95.61
70271;SHT31;57680;54.292;18.598;2023-08-07T03:48:07;14.60;95.21
70271;SHT31;57680;54.292;18.598;2023-08-07T03:50:33;14.64;94.99
70271;SHT31;57680;54.292;18.598;2023-08-07T03:52:58;14.65;94.53
70271;SHT31;57680;54.292;18.598;2023-08-07T03:55:23;14.71;94.51
70271;SHT31;57680;54.292;18.598;2023-08-07T03:57:48;14.74;93.58
70271;SHT31;57680;54.292;18.598;2023-08-07T04:00:14;14.76;93.23
70271;SHT31;57680;54.292;18.598;2023-08-07T04:02:39;14.76;93.23
70271;SHT31;57680;54.292;18.598;2023-08-07T04:05:05;14.82;93.06
70271;SHT31;57680;54.292;18.598;2023-08-07T04:07:30;14.95;93.04
70271;SHT31;57680;54.292;18.598;2023-08-07T04:09:56;15.03;92.22
70271;SHT31;57680;54.292;18.598;2023-08-07T04:12:21;15.09;91.78
70271;SHT31;57680;54.292;18.598;2023-08-07T04:14:47;15.09;91.88
70271;SHT31;57680;54.292;18.598;2023-08-07T04:17:12;15.10;91.78
70271;SHT31;57680;54.292;18.598;2023-08-07T04:19:37;15.18;91.59
70271;SHT31;57680;54.292;18.598;2023-08-07T04:22:03;15.26;91.29
70271;SHT31;57680;54.292;18.598;2023-08-07T04:24:28;16.06;89.05
70271;SHT31;57680;54.292;18.598;2023-08-07T04:26:53;16.16;86.73
70271;SHT31;57680;54.292;18.598;2023-08-07T04:29:19;15.97;87.36
70271;SHT31;57680;54.292;18.598;2023-08-07T04:31:44;15.75;88.01
70271;SHT31;57680;54.292;18.598;2023-08-07T04:34:09;15.58;88.28
70271;SHT31;57680;54.292;18.598;2023-08-07T04:36:35;15.49;88.50
70271;SHT31;57680;54.292;18.598;2023-08-07T04:39:00;15.39;88.84
70271;SHT31;57680;54.292;18.598;2023-08-07T04:41:27;15.30;88.85
70271;SHT31;57680;54.292;18.598;2023-08-07T04:43:52;15.16;89.42
70271;SHT31;57680;54.292;18.598;2023-08-07T04:46:18;15.16;89.33
70271;SHT31;57680;54.292;18.598;2023-08-07T04:48:43;15.14;89.31
70271;SHT31;57680;54.292;18.598;2023-08-07T04:51:09;15.12;89.94
70271;SHT31;57680;54.292;18.598;2023-08-07T04:53:34;15.16;89.66
70271;SHT31;57680;54.292;18.598;2023-08-07T04:56:00;15.13;89.36
70271;SHT31;57680;54.292;18.598;2023-08-07T04:58:25;15.10;89.23
70271;SHT31;57680;54.292;18.598;2023-08-07T05:00:57;15.16;89.33
70271;SHT31;57680;54.292;18.598;2023-08-07T05:03:23;15.18;89.54
70271;SHT31;57680;54.292;18.598;2023-08-07T05:05:48;15.30;89.30
70271;SHT31;57680;54.292;18.598;2023-08-07T05:08:13;15.39;88.53
70271;SHT31;57680;54.292;18.598;2023-08-07T05:10:39;15.49;88.43
70271;SHT31;57680;54.292;18.598;2023-08-07T05:13:04;15.55;88.21
70271;SHT31;57680;54.292;18.598;2023-08-07T05:15:29;15.57;87.85
70271;SHT31;57680;54.292;18.598;2023-08-07T05:17:55;15.60;87.98
70271;SHT31;57680;54.292;18.598;2023-08-07T05:20:20;15.64;88.04
70271;SHT31;57680;54.292;18.598;2023-08-07T05:22:45;15.70;87.60
70271;SHT31;57680;54.292;18.598;2023-08-07T05:25:10;15.84;87.05
70271;SHT31;57680;54.292;18.598;2023-08-07T05:27:36;15.88;87.17
70271;SHT31;57680;54.292;18.598;2023-08-07T05:30:01;15.87;86.52
70271;SHT31;57680;54.292;18.598;2023-08-07T05:32:27;15.90;86.09
70271;SHT31;57680;54.292;18.598;2023-08-07T05:34:52;16.02;85.85
70271;SHT31;57680;54.292;18.598;2023-08-07T05:37:18;16.04;85.69
70271;SHT31;57680;54.292;18.598;2023-08-07T05:39:43;16.09;85.87
70271;SHT31;57680;54.292;18.598;2023-08-07T05:42:09;16.12;85.52
70271;SHT31;57680;54.292;18.598;2023-08-07T05:44:34;16.19;85.30
70271;SHT31;57680;54.292;18.598;2023-08-07T05:47:00;16.30;84.46
70271;SHT31;57680;54.292;18.598;2023-08-07T05:49:26;16.94;83.52
70271;SHT31;57680;54.292;18.598;2023-08-07T05:51:51;17.65;80.55
70271;SHT31;57680;54.292;18.598;2023-08-07T05:54:16;17.22;81.11
70271;SHT31;57680;54.292;18.598;2023-08-07T05:56:42;17.06;81.23
70271;SHT31;57680;54.292;18.598;2023-08-07T05:59:08;16.88;82.33
70271;SHT31;57680;54.292;18.598;2023-08-07T06:01:33;16.91;82.40
70271;SHT31;57680;54.292;18.598;2023-08-07T06:03:59;16.97;82.02
70271;SHT31;57680;54.292;18.598;2023-08-07T06:06:25;16.94;82.10
70271;SHT31;57680;54.292;18.598;2023-08-07T06:08:51;17.00;81.79
70271;SHT31;57680;54.292;18.598;2023-08-07T06:11:16;17.21;82.13
70271;SHT31;57680;54.292;18.598;2023-08-07T06:13:41;17.24;80.18
70271;SHT31;57680;54.292;18.598;2023-08-07T06:16:07;17.34;81.58
70271;SHT31;57680;54.292;18.598;2023-08-07T06:18:32;17.32;79.91
70271;SHT31;57680;54.292;18.598;2023-08-07T06:20:58;17.36;80.02
70271;SHT31;57680;54.292;18.598;2023-08-07T06:23:23;17.31;80.19
70271;SHT31;57680;54.292;18.598;2023-08-07T06:25:48;17.18;81.19
70271;SHT31;57680;54.292;18.598;2023-08-07T06:28:13;17.11;81.08
70271;SHT31;57680;54.292;18.598;2023-08-07T06:30:39;17.30;80.86
70271;SHT31;57680;54.292;18.598;2023-08-07T06:33:04;17.52;78.79
70271;SHT31;57680;54.292;18.598;2023-08-07T06:35:29;17.83;78.94
70271;SHT31;57680;54.292;18.598;2023-08-07T06:37:55;18.21;78.08
70271;SHT31;57680;54.292;18.598;2023-08-07T06:40:20;18.44;77.20
70271;SHT31;57680;54.292;18.598;2023-08-07T06:42:45;18.84;76.01
70271;SHT31;57680;54.292;18.598;2023-08-07T06:45:11;18.75;75.35
70271;SHT31;57680;54.292;18.598;2023-08-07T06:47:36;18.64;76.22
70271;SHT31;57680;54.292;18.598;2023-08-07T06:50:02;18.44;77.93
70271;SHT31;57680;54.292;18.598;2023-08-07T06:52:27;18.12;76.91
70271;SHT31;57680;54.292;18.598;2023-08-07T06:54:52;17.82;77.38
70271;SHT31;57680;54.292;18.598;2023-08-07T06:57:18;17.61;78.79
70271;SHT31;57680;54.292;18.598;2023-08-07T06:59:43;17.65;79.34
70271;SHT31;57680;54.292;18.598;2023-08-07T07:02:08;17.73;79.09
70271;SHT31;57680;54.292;18.598;2023-08-07T07:04:34;17.69;79.58
70271;SHT31;57680;54.292;18.598;2023-08-07T07:06:59;17.61;78.86
70271;SHT31;57680;54.292;18.598;2023-08-07T07:09:25;17.59;79.09
70271;SHT31;57680;54.292;18.598;2023-08-07T07:11:50;17.69;78.48
70271;SHT31;57680;54.292;18.598;2023-08-07T07:14:15;17.86;77.97
70271;SHT31;57680;54.292;18.598;2023-08-07T07:16:41;17.93;77.24
70271;SHT31;57680;54.292;18.598;2023-08-07T07:19:06;18.03;76.90
70271;SHT31;57680;54.292;18.598;2023-08-07T07:21:32;17.94;76.97
70271;SHT31;57680;54.292;18.598;2023-08-07T07:23:58;18.17;76.65
70271;SHT31;57680;54.292;18.598;2023-08-07T07:26:23;18.60;76.22
70271;SHT31;57680;54.292;18.598;2023-08-07T07:28:49;18.64;75.92
70271;SHT31;57680;54.292;18.598;2023-08-07T07:31:14;18.87;73.74
70271;SHT31;57680;54.292;18.598;2023-08-07T07:33:39;18.54;75.72
70271;SHT31;57680;54.292;18.598;2023-08-07T07:36:05;18.48;75.92
70271;SHT31;57680;54.292;18.598;2023-08-07T07:38:30;18.54;74.80
70271;SHT31;57680;54.292;18.598;2023-08-07T07:40:56;18.52;75.93
70271;SHT31;57680;54.292;18.598;2023-08-07T07:43:21;18.55;74.41
70271;SHT31;57680;54.292;18.598;2023-08-07T07:45:46;18.78;74.50
70271;SHT31;57680;54.292;18.598;2023-08-07T07:48:12;19.49;73.28
70271;SHT31;57680;54.292;18.598;2023-08-07T07:50:37;19.54;71.18
70271;SHT31;57680;54.292;18.598;2023-08-07T07:53:03;19.13;72.14
70271;SHT31;57680;54.292;18.598;2023-08-07T07:55:28;19.43;72.23
70271;SHT31;57680;54.292;18.598;2023-08-07T07:57:54;19.12;72.75
70271;SHT31;57680;54.292;18.598;2023-08-07T08:00:20;18.76;73.63
70271;SHT31;57680;54.292;18.598;2023-08-07T08:02:45;18.92;74.69
70271;SHT31;57680;54.292;18.598;2023-08-07T08:05:10;18.72;73.79
70271;SHT31;57680;54.292;18.598;2023-08-07T08:07:37;18.43;75.02
70271;SHT31;57680;54.292;18.598;2023-08-07T08:10:06;18.30;74.68
70271;SHT31;57680;54.292;18.598;2023-08-07T08:12:31;18.23;74.91
70271;SHT31;57680;54.292;18.598;2023-08-07T08:14:56;18.17;74.57
70271;SHT31;57680;54.292;18.598;2023-08-07T08:17:23;18.13;75.22
70271;SHT31;57680;54.292;18.598;2023-08-07T08:19:48;18.07;75.84
70271;SHT31;57680;54.292;18.598;2023-08-07T08:22:13;18.09;76.08
70271;SHT31;57680;54.292;18.598;2023-08-07T08:24:39;18.14;75.72
70271;SHT31;57680;54.292;18.598;2023-08-07T08:27:04;17.99;75.50
70271;SHT31;57680;54.292;18.598;2023-08-07T08:29:30;18.17;76.56
70271;SHT31;57680;54.292;18.598;2023-08-07T08:31:55;18.40;74.90
70271;SHT31;57680;54.292;18.598;2023-08-07T08:34:21;18.51;74.86
70271;SHT31;57680;54.292;18.598;2023-08-07T08:36:46;18.79;75.25
70271;SHT31;57680;54.292;18.598;2023-08-07T08:39:12;18.95;74.50
70271;SHT31;57680;54.292;18.598;2023-08-07T08:41:37;18.68;74.54
70271;SHT31;57680;54.292;18.598;2023-08-07T08:44:03;18.33;75.59
70271;SHT31;57680;54.292;18.598;2023-08-07T08:46:31;18.00;77.36
70271;SHT31;57680;54.292;18.598;2023-08-07T08:48:57;18.16;78.03
70271;SHT31;57680;54.292;18.598;2023-08-07T08:51:24;18.20;77.14
70271;SHT31;57680;54.292;18.598;2023-08-07T08:53:52;18.17;76.01
70271;SHT31;57680;54.292;18.598;2023-08-07T08:56:17;18.09;76.14
70271;SHT31;57680;54.292;18.598;2023-08-07T08:58:43;18.03;77.33
70271;SHT31;57680;54.292;18.598;2023-08-07T09:01:09;17.87;75.99
70271;SHT31;57680;54.292;18.598;2023-08-07T09:03:35;17.83;77.70
70271;SHT31;57680;54.292;18.598;2023-08-07T09:06:01;17.82;76.51
70271;SHT31;57680;54.292;18.598;2023-08-07T09:08:27;17.86;76.55
70271;SHT31;57680;54.292;18.598;2023-08-07T09:10:53;17.99;76.22
70271;SHT31;57680;54.292;18.598;2023-08-07T09:13:23;18.06;76.40
70271;SHT31;57680;54.292;18.598;2023-08-07T09:15:50;18.07;75.17
70271;SHT31;57680;54.292;18.598;2023-08-07T09:18:16;18.13;73.86
70271;SHT31;57680;54.292;18.598;2023-08-07T09:20:42;18.24;74.48
70271;SHT31;57680;54.292;18.598;2023-08-07T09:23:08;18.09;73.92
70271;SHT31;57680;54.292;18.598;2023-08-07T09:25:34;18.06;73.74
70271;SHT31;57680;54.292;18.598;2023-08-07T09:28:04;18.23;74.52
70271;SHT31;57680;54.292;18.598;2023-08-07T09:30:30;18.38;74.00
70271;SHT31;57680;54.292;18.598;2023-08-07T09:33:00;18.64;74.02
70271;SHT31;57680;54.292;18.598;2023-08-07T09:35:26;18.62;73.12
70271;SHT31;57680;54.292;18.598;2023-08-07T09:37:53;18.69;73.18
70271;SHT31;57680;54.292;18.598;2023-08-07T09:40:19;18.81;73.06
70271;SHT31;57680;54.292;18.598;2023-08-07T09:42:44;18.71;72.54
70271;SHT31;57680;54.292;18.598;2023-08-07T09:45:24;18.40;71.71
70271;SHT31;57680;54.292;18.598;2023-08-07T09:48:04;18.30;73.19
70271;SHT31;57680;54.292;18.598;2023-08-07T09:50:30;18.16;73.34
70271;SHT31;57680;54.292;18.598;2023-08-07T09:52:56;18.23;73.07
70271;SHT31;57680;54.292;18.598;2023-08-07T09:55:22;18.41;73.80
70271;SHT31;57680;54.292;18.598;2023-08-07T09:57:48;18.57;71.79
70271;SHT31;57680;54.292;18.598;2023-08-07T10:00:14;18.62;71.85
70271;SHT31;57680;54.292;18.598;2023-08-07T10:02:39;18.72;71.56
70271;SHT31;57680;54.292;18.598;2023-08-07T10:05:06;19.03;70.20
70271;SHT31;57680;54.292;18.598;2023-08-07T10:07:32;19.19;70.56
70271;SHT31;57680;54.292;18.598;2023-08-07T10:09:59;19.32;71.25
70271;SHT31;57680;54.292;18.598;2023-08-07T10:12:25;19.18;69.56
70271;SHT31;57680;54.292;18.598;2023-08-07T10:14:51;19.33;69.65
70271;SHT31;57680;54.292;18.598;2023-08-07T10:17:17;19.33;69.26
70271;SHT31;57680;54.292;18.598;2023-08-07T10:19:43;19.46;68.84
70271;SHT31;57680;54.292;18.598;2023-08-07T10:22:09;19.06;68.33
70271;SHT31;57680;54.292;18.598;2023-08-07T10:24:36;18.96;69.20
70271;SHT31;57680;54.292;18.598;2023-08-07T10:27:04;18.95;68.08
70271;SHT31;57680;54.292;18.598;2023-08-07T10:29:31;19.18;67.68
70271;SHT31;57680;54.292;18.598;2023-08-07T10:31:58;19.23;68.69
70271;SHT31;57680;54.292;18.598;2023-08-07T10:34:23;19.01;68.66
70271;SHT31;57680;54.292;18.598;2023-08-07T10:36:49;19.20;68.97
70271;SHT31;57680;54.292;18.598;2023-08-07T10:39:15;19.32;68.39
70271;SHT31;57680;54.292;18.598;2023-08-07T10:41:44;19.36;67.87
70271;SHT31;57680;54.292;18.598;2023-08-07T10:44:24;19.42;68.28
70271;SHT31;57680;54.292;18.598;2023-08-07T10:46:52;19.37;67.94
70271;SHT31;57680;54.292;18.598;2023-08-07T10:49:47;19.50;68.30
70271;SHT31;57680;54.292;18.598;2023-08-07T10:52:14;19.42;67.05
70271;SHT31;57680;54.292;18.598;2023-08-07T10:54:48;19.53;67.68
70271;SHT31;57680;54.292;18.598;2023-08-07T10:57:14;19.67;66.83
70271;SHT31;57680;54.292;18.598;2023-08-07T11:02:25;19.69;65.45
70271;SHT31;57680;54.292;18.598;2023-08-07T11:04:52;19.81;65.95
70271;SHT31;57680;54.292;18.598;2023-08-07T11:07:25;19.71;65.73
70271;SHT31;57680;54.292;18.598;2023-08-07T11:09:51;19.75;65.44
70271;SHT31;57680;54.292;18.598;2023-08-07T11:12:17;19.82;64.72
70271;SHT31;57680;54.292;18.598;2023-08-07T11:14:42;19.77;66.78
70271;SHT31;57680;54.292;18.598;2023-08-07T11:17:08;19.67;65.00
70271;SHT31;57680;54.292;18.598;2023-08-07T11:19:35;19.84;65.84
70271;SHT31;57680;54.292;18.598;2023-08-07T11:22:01;19.82;65.98
70271;SHT31;57680;54.292;18.598;2023-08-07T11:24:27;19.57;66.19
70271;SHT31;57680;54.292;18.598;2023-08-07T11:26:53;19.56;65.73
70271;SHT31;57680;54.292;18.598;2023-08-07T11:29:18;19.59;65.94
70271;SHT31;57680;54.292;18.598;2023-08-07T11:31:44;19.61;65.69
70271;SHT31;57680;54.292;18.598;2023-08-07T11:34:11;19.57;66.99
70271;SHT31;57680;54.292;18.598;2023-08-07T11:36:43;19.47;65.99
70271;SHT31;57680;54.292;18.598;2023-08-07T11:39:08;19.34;66.29
70271;SHT31;57680;54.292;18.598;2023-08-07T11:41:33;19.30;66.47
70271;SHT31;57680;54.292;18.598;2023-08-07T11:43:59;19.34;67.15
70271;SHT31;57680;54.292;18.598;2023-08-07T11:46:24;19.18;66.06
70271;SHT31;57680;54.292;18.598;2023-08-07T11:48:52;19.23;67.05
70271;SHT31;57680;54.292;18.598;2023-08-07T11:51:20;19.32;67.73
70271;SHT31;57680;54.292;18.598;2023-08-07T11:53:45;19.19;67.43
70271;SHT31;57680;54.292;18.598;2023-08-07T11:56:13;19.29;67.70
70271;SHT31;57680;54.292;18.598;2023-08-07T11:58:42;19.18;66.69
70271;SHT31;57680;54.292;18.598;2023-08-07T12:01:14;19.13;67.36
70271;SHT31;57680;54.292;18.598;2023-08-07T12:06:31;19.15;67.38
70271;SHT31;57680;54.292;18.598;2023-08-07T12:08:57;19.32;68.78
70271;SHT31;57680;54.292;18.598;2023-08-07T12:11:23;19.26;69.15
70271;SHT31;57680;54.292;18.598;2023-08-07T12:13:49;19.32;68.46
70271;SHT31;57680;54.292;18.598;2023-08-07T12:16:15;19.33;68.33
70271;SHT31;57680;54.292;18.598;2023-08-07T12:18:49;19.19;66.91
70271;SHT31;57680;54.292;18.598;2023-08-07T12:21:16;19.33;67.52
70271;SHT31;57680;54.292;18.598;2023-08-07T12:23:44;19.29;67.02
70271;SHT31;57680;54.292;18.598;2023-08-07T12:26:09;19.30;66.85
70271;SHT31;57680;54.292;18.598;2023-08-07T12:28:34;19.15;67.85
70271;SHT31;57680;54.292;18.598;2023-08-07T12:31:00;19.29;68.84
70271;SHT31;57680;54.292;18.598;2023-08-07T12:33:25;19.40;66.90
70271;SHT31;57680;54.292;18.598;2023-08-07T12:35:51;19.53;66.18
70271;SHT31;57680;54.292;18.598;2023-08-07T12:38:17;19.80;66.55
70271;SHT31;57680;54.292;18.598;2023-08-07T12:40:42;19.74;65.02
70271;SHT31;57680;54.292;18.598;2023-08-07T12:43:08;20.15;65.77
70271;SHT31;57680;54.292;18.598;2023-08-07T12:45:34;20.31;64.76
70271;SHT31;57680;54.292;18.598;2023-08-07T12:48:00;20.12;64.02
70271;SHT31;57680;54.292;18.598;2023-08-07T12:50:25;19.92;64.33
70271;SHT31;57680;54.292;18.598;2023-08-07T12:52:51;19.71;65.10
70271;SHT31;57680;54.292;18.598;2023-08-07T12:55:16;19.39;65.21
70271;SHT31;57680;54.292;18.598;2023-08-07T12:57:43;19.15;65.72
70271;SHT31;57680;54.292;18.598;2023-08-07T13:00:09;18.99;66.97
70271;SHT31;57680;54.292;18.598;2023-08-07T13:02:35;18.84;67.61
70271;SHT31;57680;54.292;18.598;2023-08-07T13:05:00;18.91;68.16
70271;SHT31;57680;54.292;18.598;2023-08-07T13:07:26;18.94;68.55
70271;SHT31;57680;54.292;18.598;2023-08-07T13:09:51;19.26;67.62
70271;SHT31;57680;54.292;18.598;2023-08-07T13:12:16;19.39;66.95
70271;SHT31;57680;54.292;18.598;2023-08-07T13:14:42;19.36;66.45
70271;SHT31;57680;54.292;18.598;2023-08-07T13:17:07;19.37;66.62
70271;SHT31;57680;54.292;18.598;2023-08-07T13:19:32;19.20;66.67
70271;SHT31;57680;54.292;18.598;2023-08-07T13:21:58;19.22;67.93
70271;SHT31;57680;54.292;18.598;2023-08-07T13:24:23;19.08;67.23
70271;SHT31;57680;54.292;18.598;2023-08-07T13:26:49;18.82;68.24
70271;SHT31;57680;54.292;18.598;2023-08-07T13:29:14;18.62;68.37
70271;SHT31;57680;54.292;18.598;2023-08-07T13:31:40;18.51;68.85
70271;SHT31;57680;54.292;18.598;2023-08-07T13:34:05;18.38;69.67
70271;SHT31;57680;54.292;18.598;2023-08-07T13:36:30;18.38;69.47
70271;SHT31;57680;54.292;18.598;2023-08-07T13:38:56;18.27;69.94
70271;SHT31;57680;54.292;18.598;2023-08-07T13:41:21;18.23;70.32
70271;SHT31;57680;54.292;18.598;2023-08-07T13:43:46;18.12;70.14
70271;SHT31;57680;54.292;18.598;2023-08-07T13:46:12;18.07;70.78
70271;SHT31;57680;54.292;18.598;2023-08-07T13:48:37;17.99;71.50
70271;SHT31;57680;54.292;18.598;2023-08-07T13:51:02;17.93;70.84
70271;SHT31;57680;54.292;18.598;2023-08-07T13:53:28;18.10;70.18
70271;SHT31;57680;54.292;18.598;2023-08-07T13:55:53;18.10;70.77
70271;SHT31;57680;54.292;18.598;2023-08-07T13:58:18;18.21;69.77
70271;SHT31;57680;54.292;18.598;2023-08-07T14:00:44;18.40;69.81
70271;SHT31;57680;54.292;18.598;2023-08-07T14:03:09;18.61;69.31
70271;SHT31;57680;54.292;18.598;2023-08-07T14:05:35;18.96;67.29
70271;SHT31;57680;54.292;18.598;2023-08-07T14:08:00;19.18;66.85
70271;SHT31;57680;54.292;18.598;2023-08-07T14:10:26;19.18;67.54
70271;SHT31;57680;54.292;18.598;2023-08-07T14:12:51;18.84;68.17
70271;SHT31;57680;54.292;18.598;2023-08-07T14:15:17;18.58;68.14
70271;SHT31;57680;54.292;18.598;2023-08-07T14:17:42;18.44;69.39
70271;SHT31;57680;54.292;18.598;2023-08-07T14:20:08;18.21;70.20
70271;SHT31;57680;54.292;18.598;2023-08-07T14:22:34;18.20;70.85
70271;SHT31;57680;54.292;18.598;2023-08-07T14:24:59;18.27;69.54
70271;SHT31;57680;54.292;18.598;2023-08-07T14:27:26;18.29;70.50
70271;SHT31;57680;54.292;18.598;2023-08-07T14:29:52;18.24;71.48
70271;SHT31;57680;54.292;18.598;2023-08-07T14:32:22;18.03;71.71
70271;SHT31;57680;54.292;18.598;2023-08-07T14:34:48;17.83;72.36
70271;SHT31;57680;54.292;18.598;2023-08-07T14:37:14;17.68;73.31
70271;SHT31;57680;54.292;18.598;2023-08-07T14:39:39;17.63;73.26
70271;SHT31;57680;54.292;18.598;2023-08-07T14:42:05;17.72;73.87
70271;SHT31;57680;54.292;18.598;2023-08-07T14:44:30;17.63;73.47
70271;SHT31;57680;54.292;18.598;2023-08-07T14:46:55;17.63;74.80
70271;SHT31;57680;54.292;18.598;2023-08-07T14:49:21;17.55;76.01
70271;SHT31;57680;54.292;18.598;2023-08-07T14:51:46;17.30;77.23
70271;SHT31;57680;54.292;18.598;2023-08-07T14:54:12;17.04;79.68
70271;SHT31;57680;54.292;18.598;2023-08-07T14:56:37;16.77;81.81
70271;SHT31;57680;54.292;18.598;2023-08-07T14:59:02;16.62;82.44
70271;SHT31;57680;54.292;18.598;2023-08-07T15:01:28;16.38;84.23
70271;SHT31;57680;54.292;18.598;2023-08-07T15:03:53;16.21;84.31
70271;SHT31;57680;54.292;18.598;2023-08-07T15:06:18;16.25;84.35
70271;SHT31;57680;54.292;18.598;2023-08-07T15:08:44;16.26;84.40
70271;SHT31;57680;54.292;18.598;2023-08-07T15:11:09;16.35;83.49
70271;SHT31;57680;54.292;18.598;2023-08-07T15:13:35;16.46;83.02
70271;SHT31;57680;54.292;18.598;2023-08-07T15:16:00;16.51;82.52